Time;durP1;ratioP1;P1;durP2;ratioP2;P2;SDS_P1;SDS_P2;PMS_P1;PMS_P2;Temp;Humidity;BMP_temperature;BMP_pressure;BME280_temperature;BME280_humidity;BME280_pressure;Samples;Min_cycle;Max_cycle;Signal;HPM_P1;HPM_P2
2022/07/19 00:00:46;;;;;;;0.87;0.87;;;21.90;51.60;22.40;97061.00;;;;5096286;28;20215;-85
2022/07/19 00:03:16;;;;;;;0.73;0.70;;;21.90;51.70;22.40;97049.00;;;;5096503;28;20195;-85
2022/07/19 00:05:44;;;;;;;2.87;1.07;;;21.80;51.80;22.30;97056.00;;;;5110257;28;20190;-84
2022/07/19 00:08:11;;;;;;;1.00;1.00;;;21.80;51.90;22.30;97044.00;;;;5115574;28;20253;-84
2022/07/19 00:10:38;;;;;;;1.10;1.10;;;21.70;52.10;22.30;97047.00;;;;5100927;28;20250;-86
2022/07/19 00:13:06;;;;;;;1.07;0.90;;;21.70;52.30;22.20;97046.00;;;;5100393;28;20226;-85
2022/07/19 00:15:33;;;;;;;0.83;0.60;;;21.60;52.40;22.20;97049.00;;;;5099238;28;20685;-86
2022/07/19 00:18:00;;;;;;;1.37;0.80;;;21.60;52.50;22.20;97042.00;;;;5092165;28;20203;-85
2022/07/19 00:20:28;;;;;;;1.30;0.90;;;21.60;52.60;22.10;97048.00;;;;5092239;28;20250;-85
2022/07/19 00:22:55;;;;;;;0.63;0.63;;;21.60;52.70;22.10;97041.00;;;;5109731;28;20236;-85
2022/07/19 00:25:23;;;;;;;2.20;1.20;;;21.50;52.70;22.10;97037.00;;;;5090234;28;20623;-86
2022/07/19 00:27:50;;;;;;;4.23;1.10;;;21.50;52.80;22.10;97039.00;;;;5083283;28;20632;-85
2022/07/19 00:30:17;;;;;;;0.90;0.77;;;21.50;52.80;22.10;97041.00;;;;5097483;28;20296;-85
2022/07/19 00:32:44;;;;;;;1.53;0.80;;;21.50;52.90;22.00;97040.00;;;;5098043;28;20298;-85
2022/07/19 00:35:11;;;;;;;0.90;0.70;;;21.40;52.80;22.00;97039.00;;;;5100307;28;20284;-85
2022/07/19 00:37:40;;;;;;;1.50;1.10;;;21.40;52.80;22.00;97043.00;;;;5090274;28;20666;-85
2022/07/19 00:40:09;;;;;;;0.67;0.67;;;21.40;52.90;21.90;97048.00;;;;5096497;28;20674;-85
2022/07/19 00:42:38;;;;;;;0.90;0.90;;;21.30;52.90;21.90;97036.00;;;;5093062;28;20250;-85
2022/07/19 00:45:06;;;;;;;0.93;0.73;;;21.30;53.00;21.80;97038.00;;;;5109473;28;20191;-86
2022/07/19 00:47:34;;;;;;;2.00;0.97;;;21.20;53.10;21.80;97037.00;;;;5100482;28;20718;-85
2022/07/19 00:50:01;;;;;;;0.77;0.77;;;21.20;53.20;21.70;97045.00;;;;5103307;28;20225;-86
2022/07/19 00:55:04;;;;;;;1.17;0.90;;;21.10;53.50;21.70;97039.00;;;;5082782;22;20564;-85
2022/07/19 00:57:41;;;;;;;2.03;0.90;;;21.10;53.90;21.60;97039.00;;;;5070107;28;20258;-85
2022/07/19 01:00:11;;;;;;;2.60;0.83;;;21.10;54.00;21.60;97039.00;;;;5067202;28;20281;-85
2022/07/19 01:02:39;;;;;;;1.07;0.90;;;21.00;53.90;21.60;97042.00;;;;5078717;28;20214;-85
2022/07/19 01:05:09;;;;;;;1.07;0.90;;;21.00;53.90;21.60;97031.00;;;;5091956;28;20200;-85
2022/07/19 01:07:37;;;;;;;1.27;0.80;;;21.00;54.10;21.50;97041.00;;;;5084158;28;20643;-85
2022/07/19 01:10:09;;;;;;;2.20;1.07;;;20.90;54.00;21.50;97040.00;;;;5078093;28;20196;-85
2022/07/19 01:12:36;;;;;;;1.07;0.97;;;20.90;54.10;21.50;97039.00;;;;5067089;28;20273;-84
2022/07/19 01:15:14;;;;;;;0.97;0.83;;;20.90;54.10;21.40;97036.00;;;;5070651;28;20202;-85
2022/07/19 01:17:41;;;;;;;0.97;0.97;;;20.90;54.10;21.40;97034.00;;;;5066534;28;20283;-84
2022/07/19 01:20:10;;;;;;;0.83;0.83;;;20.90;54.10;21.40;97035.00;;;;5080949;28;20207;-85
2022/07/19 01:22:39;;;;;;;0.73;0.73;;;20.80;54.20;21.30;97035.00;;;;5084544;28;20200;-84
2022/07/19 01:25:07;;;;;;;1.80;0.83;;;20.80;54.40;21.30;97037.00;;;;5083936;28;20199;-84
2022/07/19 01:27:40;;;;;;;1.20;1.10;;;20.80;54.30;21.30;97040.00;;;;5078152;28;20263;-85
2022/07/19 01:30:15;;;;;;;1.00;1.00;;;20.80;54.60;21.30;97030.00;;;;5085250;28;20859;-84
2022/07/19 01:32:45;;;;;;;1.37;0.80;;;20.70;54.70;21.30;97037.00;;;;5075855;28;20196;-84
2022/07/19 01:35:13;;;;;;;0.77;0.77;;;20.70;54.60;21.20;97036.00;;;;5068621;28;20586;-84
2022/07/19 01:37:42;;;;;;;1.63;0.90;;;20.60;55.10;21.20;97042.00;;;;5077482;28;20226;-85
2022/07/19 01:40:14;;;;;;;0.73;0.73;;;20.60;54.60;21.10;97046.00;;;;5079511;28;20202;-84
2022/07/19 01:42:42;;;;;;;1.97;0.80;;;20.60;54.70;21.10;97036.00;;;;5074385;28;20522;-84
2022/07/19 01:45:11;;;;;;;0.90;0.90;;;20.50;54.80;21.10;97038.00;;;;5080394;28;20192;-84
2022/07/19 01:47:40;;;;;;;0.70;0.70;;;20.50;54.90;21.00;97041.00;;;;5082017;28;20303;-84
2022/07/19 01:50:10;;;;;;;1.10;0.87;;;20.50;55.20;21.00;97036.00;;;;5070313;22;20267;-85
2022/07/19 01:52:38;;;;;;;1.03;0.97;;;20.40;55.40;20.90;97029.00;;;;5030751;28;20248;-84
2022/07/19 01:55:08;;;;;;;1.07;0.93;;;20.40;55.50;20.90;97032.00;;;;5040880;28;20205;-85
2022/07/19 01:57:35;;;;;;;0.80;0.80;;;20.40;55.80;20.80;97031.00;;;;5024587;28;20231;-85
2022/07/19 02:00:04;;;;;;;0.70;0.70;;;20.40;55.70;20.80;97035.00;;;;5020873;28;20198;-85
2022/07/19 02:02:32;;;;;;;1.07;0.97;;;20.30;55.80;20.80;97023.00;;;;5017893;28;20198;-85
2022/07/19 02:04:59;;;;;;;1.60;1.00;;;20.30;55.90;20.70;97026.00;;;;5025664;28;20213;-85
2022/07/19 02:07:26;;;;;;;1.03;0.93;;;20.20;55.90;20.70;97019.00;;;;5012917;28;20222;-85
2022/07/19 02:09:54;;;;;;;1.03;0.90;;;20.20;56.10;20.70;97016.00;;;;5025492;28;20197;-85
2022/07/19 02:12:22;;;;;;;0.70;0.70;;;20.20;56.20;20.60;97008.00;;;;5025213;28;20201;-85
2022/07/19 02:14:50;;;;;;;0.87;0.87;;;20.10;56.30;20.60;97015.00;;;;5016274;28;20221;-85
2022/07/19 02:17:26;;;;;;;0.90;0.80;;;20.10;56.40;20.60;97010.00;;;;5017246;28;20703;-85
2022/07/19 02:19:53;;;;;;;1.87;1.20;;;20.10;56.60;20.60;97000.00;;;;5011989;28;20269;-84
2022/07/19 02:22:21;;;;;;;1.63;0.90;;;20.00;56.50;20.50;97003.00;;;;5022759;28;20280;-85
2022/07/19 02:24:48;;;;;;;0.80;0.80;;;20.00;56.50;20.50;97007.00;;;;5011144;28;20645;-85
2022/07/19 02:27:15;;;;;;;1.20;1.00;;;20.00;56.60;20.50;96996.00;;;;5017795;28;20219;-85
2022/07/19 02:29:44;;;;;;;1.87;0.90;;;19.90;56.60;20.50;96997.00;;;;5022498;28;20764;-85
2022/07/19 02:32:13;;;;;;;1.27;1.00;;;19.90;56.60;20.40;97000.00;;;;5014622;28;20198;-84
2022/07/19 02:34:50;;;;;;;1.77;1.20;;;19.90;56.60;20.40;96990.00;;;;5014558;28;20198;-85
2022/07/19 02:37:20;;;;;;;0.83;0.83;;;19.90;56.70;20.30;96998.00;;;;5009867;28;20255;-85
2022/07/19 02:39:47;;;;;;;0.60;0.60;;;19.80;56.70;20.30;96998.00;;;;5021507;28;20194;-85
2022/07/19 02:42:15;;;;;;;0.87;0.87;;;19.80;56.80;20.30;96997.00;;;;5014530;28;20202;-85
2022/07/19 02:44:44;;;;;;;1.10;0.90;;;19.70;56.90;20.20;96996.00;;;;5014032;28;20234;-85
2022/07/19 02:47:12;;;;;;;1.10;0.97;;;19.70;57.10;20.20;96989.00;;;;5013840;28;20662;-85
2022/07/19 02:49:41;;;;;;;1.17;1.10;;;19.70;57.10;20.20;97005.00;;;;5021869;28;20236;-85
2022/07/19 02:52:09;;;;;;;0.87;0.87;;;19.60;57.10;20.10;96996.00;;;;5014894;28;20280;-84
2022/07/19 02:54:36;;;;;;;1.17;1.07;;;19.60;57.20;20.10;96997.00;;;;5014074;28;20202;-85
2022/07/19 02:57:04;;;;;;;1.03;0.93;;;19.60;57.20;20.10;96999.00;;;;5011873;28;20276;-85
2022/07/19 02:59:31;;;;;;;1.37;0.97;;;19.60;57.30;20.10;96991.00;;;;5019994;28;20616;-85
2022/07/19 03:01:59;;;;;;;1.30;1.20;;;19.50;57.50;20.00;96998.00;;;;5018807;28;20264;-85
2022/07/19 03:04:27;;;;;;;1.30;1.20;;;19.50;57.70;20.00;96997.00;;;;4995907;28;20206;-85
2022/07/19 03:06:54;;;;;;;1.30;1.07;;;19.50;58.30;19.90;96991.00;;;;5015533;28;20186;-85
2022/07/19 03:09:22;;;;;;;1.30;1.20;;;19.50;57.80;19.80;96998.00;;;;5022119;28;20224;-85
2022/07/19 03:11:49;;;;;;;1.30;1.20;;;19.40;57.70;19.80;96993.00;;;;5013791;28;20236;-85
2022/07/19 03:14:16;;;;;;;1.10;1.00;;;19.40;57.70;19.80;96989.00;;;;5014157;28;20639;-85
2022/07/19 03:16:43;;;;;;;1.80;1.30;;;19.40;57.70;19.80;96996.00;;;;5009018;28;20198;-85
2022/07/19 03:19:12;;;;;;;1.73;1.10;;;19.40;57.80;19.80;96997.00;;;;5014375;28;20244;-84
2022/07/19 03:21:39;;;;;;;2.10;1.10;;;19.30;57.80;19.70;97003.00;;;;5013791;28;20214;-85
2022/07/19 03:24:07;;;;;;;1.50;1.13;;;19.30;57.70;19.70;97001.00;;;;5013663;28;20240;-85
2022/07/19 03:26:34;;;;;;;1.30;1.03;;;19.30;57.70;19.70;96999.00;;;;5015263;28;20202;-86
2022/07/19 03:29:05;;;;;;;1.33;0.93;;;19.30;57.70;19.70;97004.00;;;;5018922;28;20222;-86
2022/07/19 03:31:32;;;;;;;1.53;1.40;;;19.20;57.70;19.70;96992.00;;;;5013519;28;20198;-85
2022/07/19 03:33:59;;;;;;;1.20;1.10;;;19.20;57.80;19.60;96992.00;;;;5013497;28;20225;-85
2022/07/19 03:36:28;;;;;;;2.57;1.00;;;19.20;57.90;19.60;96998.00;;;;5012828;28;20248;-85
2022/07/19 03:38:56;;;;;;;1.27;1.17;;;19.20;58.10;19.60;96997.00;;;;5013165;28;20218;-85
2022/07/19 03:41:23;;;;;;;1.30;1.20;;;19.10;58.00;19.60;96993.00;;;;5013838;28;20616;-85
2022/07/19 03:43:51;;;;;;;1.63;1.40;;;19.10;58.10;19.60;97002.00;;;;5010785;28;20224;-85
2022/07/19 03:46:20;;;;;;;2.17;1.27;;;19.10;58.10;19.60;97003.00;;;;5024523;28;20248;-85
2022/07/19 03:48:47;;;;;;;1.90;1.27;;;19.10;58.20;19.60;97003.00;;;;5020737;28;20313;-85
2022/07/19 03:51:15;;;;;;;2.13;1.23;;;19.00;58.20;19.50;97001.00;;;;5015467;28;20202;-85
2022/07/19 03:53:46;;;;;;;2.07;1.17;;;19.00;58.60;19.50;97002.00;;;;5020485;28;20209;-85
2022/07/19 03:56:14;;;;;;;1.50;1.40;;;19.00;58.90;19.50;97005.00;;;;5013504;28;20300;-85
2022/07/19 03:58:41;;;;;;;1.77;1.37;;;19.00;58.90;19.40;97006.00;;;;5019840;28;20221;-84
2022/07/19 04:01:08;;;;;;;1.30;1.10;;;19.00;59.00;19.50;97010.00;;;;5017130;28;20271;-85
2022/07/19 04:03:38;;;;;;;1.80;1.47;;;19.00;59.00;19.50;97006.00;;;;5010387;28;20230;-85
2022/07/19 04:06:11;;;;;;;2.70;1.40;;;19.00;59.20;19.50;97008.00;;;;5018200;28;20230;-85
2022/07/19 04:08:39;;;;;;;1.43;1.33;;;19.00;59.20;19.50;97007.00;;;;5012226;28;20221;-85
2022/07/19 04:11:07;;;;;;;3.33;1.67;;;19.00;59.20;19.50;97012.00;;;;5011925;28;20190;-85
2022/07/19 04:13:36;;;;;;;1.37;1.27;;;19.00;59.30;19.50;97003.00;;;;5012996;28;20607;-85
2022/07/19 04:16:05;;;;;;;1.60;1.47;;;19.00;59.20;19.50;97006.00;;;;5014146;28;20194;-85
2022/07/19 04:18:32;;;;;;;2.83;1.30;;;19.10;59.40;19.50;97004.00;;;;5012257;28;20323;-85
2022/07/19 04:21:00;;;;;;;1.37;1.30;;;19.00;59.40;19.50;97005.00;;;;5017467;28;20231;-85
2022/07/19 04:23:27;;;;;;;1.70;1.43;;;19.00;59.40;19.60;97009.00;;;;5017534;28;20579;-86
2022/07/19 04:25:55;;;;;;;1.37;1.27;;;19.10;59.60;19.60;97009.00;;;;5023799;28;20193;-86
2022/07/19 04:28:23;;;;;;;2.17;1.37;;;19.10;59.60;19.60;97002.00;;;;5021960;28;20238;-81
2022/07/19 04:30:51;;;;;;;2.40;1.30;;;19.10;59.70;19.60;97010.00;;;;5018430;28;20240;-80
2022/07/19 04:33:20;;;;;;;1.60;1.50;;;19.10;59.70;19.60;97009.00;;;;5033922;28;20232;-80
2022/07/19 04:35:48;;;;;;;1.60;1.50;;;19.10;59.60;19.60;97012.00;;;;5030987;28;20205;-81
2022/07/19 04:38:15;;;;;;;2.43;1.30;;;19.10;59.90;19.60;97011.00;;;;5024993;28;20218;-81
2022/07/19 04:40:45;;;;;;;1.30;1.20;;;19.10;59.90;19.60;97015.00;;;;5024610;28;20202;-80
2022/07/19 04:43:13;;;;;;;1.57;1.07;;;19.00;59.80;19.70;97013.00;;;;5020750;28;20283;-80
2022/07/19 04:45:41;;;;;;;1.30;1.20;;;19.10;59.90;19.70;97014.00;;;;5020954;28;20202;-80
2022/07/19 04:48:13;;;;;;;1.37;1.27;;;19.10;60.10;19.70;97018.00;;;;5025157;28;20296;-80
2022/07/19 04:50:41;;;;;;;1.30;1.20;;;19.10;60.20;19.70;97015.00;;;;5019684;28;20277;-79
2022/07/19 04:53:08;;;;;;;1.43;1.33;;;19.10;60.30;19.70;97029.00;;;;5027517;28;20221;-80
2022/07/19 04:55:38;;;;;;;1.27;1.17;;;19.10;60.50;19.80;97019.00;;;;5025280;28;20220;-79
2022/07/19 04:58:06;;;;;;;1.53;1.43;;;19.10;60.80;19.80;97032.00;;;;5023971;28;20209;-81
2022/07/19 05:00:33;;;;;;;2.10;1.20;;;19.20;60.80;19.80;97021.00;;;;5032035;28;20751;-81
2022/07/19 05:03:02;;;;;;;1.50;1.40;;;19.20;60.90;19.90;97021.00;;;;5025345;28;20204;-80
2022/07/19 05:05:29;;;;;;;2.40;1.33;;;19.20;61.10;19.90;97023.00;;;;5031511;28;20208;-81
2022/07/19 05:07:57;;;;;;;2.03;1.30;;;19.30;61.20;19.90;97026.00;;;;5019781;28;20280;-80
2022/07/19 05:10:24;;;;;;;2.37;1.40;;;19.30;61.20;20.00;97023.00;;;;5021116;28;20229;-81
2022/07/19 05:12:51;;;;;;;1.70;1.60;;;19.30;61.20;20.00;97022.00;;;;5012093;28;20194;-82
2022/07/19 05:15:19;;;;;;;1.73;1.50;;;19.40;61.40;20.10;97021.00;;;;5018109;28;20201;-81
2022/07/19 05:17:46;;;;;;;1.70;1.60;;;19.40;61.50;20.10;97025.00;;;;5023061;28;20221;-81
2022/07/19 05:20:16;;;;;;;3.53;1.47;;;19.40;62.30;20.10;97023.00;;;;5019602;28;20190;-81
2022/07/19 05:22:44;;;;;;;2.37;1.43;;;19.40;61.60;20.20;97016.00;;;;5017091;28;20615;-83
2022/07/19 05:25:12;;;;;;;2.40;1.37;;;19.50;61.70;20.20;97017.00;;;;5018288;28;20189;-83
2022/07/19 05:27:39;;;;;;;1.40;1.30;;;19.50;61.80;20.30;97019.00;;;;5014115;28;20226;-83
2022/07/19 05:30:08;;;;;;;2.10;1.50;;;19.50;61.80;20.30;97006.00;;;;5024539;28;20280;-83
2022/07/19 05:32:38;;;;;;;1.53;1.43;;;19.60;61.80;20.40;97006.00;;;;5012140;28;20574;-83
2022/07/19 05:35:06;;;;;;;1.70;1.60;;;19.70;62.00;20.40;97004.00;;;;5011772;28;20205;-83
2022/07/19 05:37:35;;;;;;;2.30;1.50;;;19.70;62.10;20.50;97003.00;;;;5013120;28;20226;-84
2022/07/19 05:40:03;;;;;;;2.47;1.67;;;19.70;62.00;20.50;97005.00;;;;5014766;28;20205;-84
2022/07/19 05:42:31;;;;;;;4.30;1.63;;;19.80;62.00;20.60;97007.00;;;;5014022;28;20206;-85
2022/07/19 05:44:58;;;;;;;2.30;1.67;;;19.80;61.80;20.60;97011.00;;;;5009731;28;20229;-84
2022/07/19 05:47:27;;;;;;;2.00;1.80;;;19.90;61.90;20.70;97009.00;;;;5010720;28;20332;-84
2022/07/19 05:49:54;;;;;;;1.63;1.53;;;19.90;61.90;20.70;97020.00;;;;5011759;28;20221;-84
2022/07/19 05:52:21;;;;;;;2.80;1.40;;;20.00;61.70;20.80;97019.00;;;;5004242;28;20612;-83
2022/07/19 05:54:50;;;;;;;1.47;1.37;;;20.10;61.70;20.90;97011.00;;;;5007942;28;20195;-84
2022/07/19 05:57:20;;;;;;;1.80;1.70;;;20.10;61.60;20.90;97012.00;;;;5020081;28;20305;-84
2022/07/19 05:59:47;;;;;;;2.63;1.60;;;20.20;61.60;21.00;97018.00;;;;5012598;28;20709;-84
2022/07/19 06:02:16;;;;;;;2.77;1.63;;;20.30;61.60;21.10;97018.00;;;;5009538;28;20202;-84
2022/07/19 06:04:44;;;;;;;1.43;1.33;;;20.30;61.50;21.10;97016.00;;;;5009196;28;20198;-84
2022/07/19 06:07:11;;;;;;;1.80;1.67;;;20.40;61.40;21.20;97019.00;;;;5013817;28;20198;-84
2022/07/19 06:09:38;;;;;;;2.53;1.60;;;20.50;61.30;21.30;97012.00;;;;5024731;28;20230;-84
2022/07/19 06:12:07;;;;;;;1.70;1.60;;;20.50;61.20;21.40;97009.00;;;;5008483;28;20206;-84
2022/07/19 06:14:37;;;;;;;2.27;1.70;;;20.60;61.20;21.50;97012.00;;;;5014881;28;20265;-84
2022/07/19 06:17:07;;;;;;;1.33;1.33;;;20.70;61.20;21.50;97017.00;;;;5014465;28;20199;-84
2022/07/19 06:19:34;;;;;;;1.80;1.70;;;20.80;61.10;21.60;97017.00;;;;5008781;28;20204;-84
2022/07/19 06:22:01;;;;;;;1.40;1.30;;;20.80;61.00;21.70;97012.00;;;;5017356;28;20252;-84
2022/07/19 06:24:29;;;;;;;1.80;1.60;;;20.90;60.90;21.80;97014.00;;;;5018998;28;20198;-83
2022/07/19 06:26:56;;;;;;;2.00;1.90;;;21.00;60.90;21.90;97010.00;;;;5013719;28;20201;-83
2022/07/19 06:29:24;;;;;;;2.77;2.17;;;21.10;61.00;22.00;97013.00;;;;5014563;28;20282;-83
2022/07/19 06:31:52;;;;;;;1.93;1.73;;;21.20;61.10;22.00;97018.00;;;;5009387;28;20284;-83
2022/07/19 06:34:19;;;;;;;1.77;1.60;;;21.30;61.00;22.10;97010.00;;;;5011265;28;20209;-83
2022/07/19 06:36:46;;;;;;;1.60;1.30;;;21.30;60.80;22.20;97010.00;;;;5001402;28;20238;-84
2022/07/19 06:39:14;;;;;;;2.07;1.70;;;21.40;60.60;22.30;97012.00;;;;5012756;28;20278;-83
2022/07/19 06:41:42;;;;;;;1.43;1.33;;;21.50;60.60;22.50;97015.00;;;;5010882;28;20228;-83
2022/07/19 06:44:09;;;;;;;5.20;1.50;;;21.60;60.60;22.60;97016.00;;;;5013559;28;20205;-84
2022/07/19 06:46:38;;;;;;;5.43;1.97;;;21.70;60.80;22.70;97016.00;;;;5015159;28;20233;-83
2022/07/19 06:49:05;;;;;;;1.37;1.30;;;21.80;60.60;22.80;97019.00;;;;5009031;28;20292;-84
2022/07/19 06:51:32;;;;;;;2.37;1.90;;;22.00;60.50;22.90;97016.00;;;;5010911;28;20214;-83
2022/07/19 06:53:59;;;;;;;4.27;1.63;;;22.10;60.50;23.00;97022.00;;;;5017473;28;20193;-84
2022/07/19 06:56:27;;;;;;;1.70;1.60;;;22.20;60.40;23.10;97015.00;;;;5031152;28;20202;-81
2022/07/19 06:58:55;;;;;;;1.53;1.43;;;22.30;60.20;23.20;97011.00;;;;5023104;28;20639;-81
2022/07/19 07:01:22;;;;;;;2.57;1.67;;;22.40;60.00;23.30;97013.00;;;;5000425;28;20275;-80
2022/07/19 07:03:51;;;;;;;1.37;1.27;;;22.50;60.10;23.40;97007.00;;;;5009054;28;20198;-82
2022/07/19 07:06:19;;;;;;;1.50;1.40;;;22.60;59.70;23.60;97012.00;;;;5031468;28;20404;-82
2022/07/19 07:08:46;;;;;;;1.30;1.20;;;22.70;59.60;23.70;97004.00;;;;5025089;28;20236;-81
2022/07/19 07:11:15;;;;;;;1.47;1.37;;;22.80;59.80;23.90;97015.00;;;;5024712;28;20225;-81
2022/07/19 07:13:43;;;;;;;1.77;1.50;;;23.00;59.50;24.10;97017.00;;;;5022907;28;20605;-82
2022/07/19 07:16:13;;;;;;;2.00;1.37;;;23.10;59.50;24.30;97019.00;;;;5016623;28;20280;-81
2022/07/19 07:18:40;;;;;;;1.30;1.20;;;23.30;59.50;24.50;97020.00;;;;5019624;28;20300;-81
2022/07/19 07:21:11;;;;;;;2.97;1.87;;;23.50;59.50;24.70;97025.00;;;;5011738;28;20603;-82
2022/07/19 07:23:38;;;;;;;2.07;1.20;;;23.70;59.30;24.90;97018.00;;;;5031795;28;20211;-81
2022/07/19 07:26:06;;;;;;;8.77;1.70;;;23.90;59.10;25.20;97017.00;;;;5009671;28;20286;-81
2022/07/19 07:28:39;;;;;;;1.97;1.60;;;24.10;59.00;25.40;97018.00;;;;5022321;28;20264;-81
2022/07/19 07:31:06;;;;;;;3.77;1.50;;;24.30;58.90;25.60;97022.00;;;;5032741;28;20271;-80
2022/07/19 07:33:33;;;;;;;1.17;1.17;;;24.50;58.80;25.90;97021.00;;;;5028149;28;20216;-82
2022/07/19 07:36:01;;;;;;;1.40;1.10;;;24.70;58.60;26.10;97013.00;;;;5021204;28;20705;-82
2022/07/19 07:38:29;;;;;;;1.63;1.43;;;24.90;58.50;26.30;97015.00;;;;5017734;28;20240;-81
2022/07/19 07:41:03;;;;;;;1.63;1.30;;;25.10;58.20;26.50;97030.00;;;;5031652;28;20194;-82
2022/07/19 07:43:31;;;;;;;1.77;1.20;;;25.30;58.10;26.70;97018.00;;;;5034160;28;20193;-82
2022/07/19 07:45:58;;;;;;;1.27;1.20;;;25.50;58.00;27.00;97022.00;;;;5023814;28;20209;-82
2022/07/19 07:48:26;;;;;;;1.20;1.10;;;25.70;57.80;27.20;97024.00;;;;5020635;28;20222;-82
2022/07/19 07:50:53;;;;;;;1.50;1.40;;;25.90;57.30;27.40;97020.00;;;;5051667;22;20230;-79
2022/07/19 07:53:20;;;;;;;1.87;1.00;;;26.10;57.20;27.60;97029.00;;;;5081101;28;20281;-82
2022/07/19 07:55:49;;;;;;;0.97;0.97;;;26.30;56.70;27.80;97017.00;;;;5068888;28;20192;-82
2022/07/19 07:58:16;;;;;;;1.53;1.33;;;26.50;56.00;28.10;97020.00;;;;5062946;28;20243;-82
2022/07/19 08:00:43;;;;;;;1.20;1.10;;;26.80;55.50;28.30;97018.00;;;;5069866;28;20726;-79
2022/07/19 08:03:10;;;;;;;1.13;1.00;;;26.90;54.40;28.50;97021.00;;;;5065213;28;20346;-82
2022/07/19 08:05:40;;;;;;;2.47;1.20;;;27.10;54.40;28.70;97017.00;;;;5079669;22;20224;-85
2022/07/19 08:08:10;;;;;;;1.02;1.02;;;27.30;53.60;28.90;97014.00;;;;5076696;28;20219;-85
2022/07/19 08:10:38;;;;;;;1.10;1.00;;;27.50;53.30;29.10;97015.00;;;;5056922;28;20695;-85
2022/07/19 08:13:07;;;;;;;1.10;1.00;;;27.70;53.00;29.30;97014.00;;;;5055654;28;20213;-85
2022/07/19 08:15:37;;;;;;;3.05;1.00;;;28.00;52.50;29.50;97012.00;;;;5057046;28;20287;-85
2022/07/19 08:18:08;;;;;;;1.10;1.02;;;28.10;52.20;29.70;97008.00;;;;5050799;28;20220;-85
2022/07/19 08:20:35;;;;;;;2.08;0.93;;;28.40;51.80;29.90;97018.00;;;;5060207;28;20232;-85
2022/07/19 08:23:03;;;;;;;2.30;1.02;;;28.60;51.40;30.10;97011.00;;;;5050539;28;20217;-85
2022/07/19 08:25:32;;;;;;;3.60;1.15;;;28.80;50.90;30.30;97010.00;;;;5047569;28;20250;-85
2022/07/19 08:27:59;;;;;;;0.82;0.82;;;29.00;50.70;30.60;97010.00;;;;5048415;28;20219;-86
2022/07/19 08:30:29;;;;;;;0.90;0.90;;;29.20;50.30;30.80;97007.00;;;;5058943;28;20252;-85
2022/07/19 08:33:00;;;;;;;1.50;1.02;;;29.30;49.50;31.00;97009.00;;;;5060300;28;20199;-85
2022/07/19 08:35:28;;;;;;;0.77;0.77;;;29.60;49.00;31.20;97013.00;;;;5049683;28;20208;-86
2022/07/19 08:37:55;;;;;;;0.95;0.80;;;29.80;48.80;31.50;97020.00;;;;5055064;28;20881;-86
2022/07/19 08:40:24;;;;;;;1.17;1.08;;;29.90;48.50;31.70;97012.00;;;;5050808;28;20242;-86
2022/07/19 08:42:58;;;;;;;0.90;0.88;;;30.10;48.20;31.90;97012.00;;;;5044144;28;20208;-85
2022/07/19 08:45:29;;;;;;;1.05;0.80;;;30.40;47.80;32.20;97012.00;;;;5054599;28;20246;-84
2022/07/19 08:47:58;;;;;;;1.95;0.70;;;30.50;46.70;32.40;97007.00;;;;5047978;28;20635;-85
2022/07/19 08:50:27;;;;;;;1.23;0.70;;;30.80;46.20;32.70;97015.00;;;;5052999;28;20270;-85
2022/07/19 08:52:54;;;;;;;4.93;1.33;;;31.00;46.30;32.90;97017.00;;;;5048306;28;20189;-85
2022/07/19 08:55:22;;;;;;;2.33;0.75;;;31.20;45.90;33.10;97010.00;;;;5053289;28;20246;-85
2022/07/19 08:58:01;;;;;;;1.33;0.60;;;31.40;45.60;33.30;97012.00;;;;5063167;28;20700;-86
2022/07/19 09:00:32;;;;;;;1.02;0.75;;;31.60;45.30;33.60;97019.00;;;;5046578;28;20665;-86
2022/07/19 09:03:02;;;;;;;0.93;0.77;;;31.80;44.30;33.80;97022.00;;;;5053441;28;20197;-86
2022/07/19 09:05:33;;;;;;;2.30;0.70;;;32.00;43.90;34.00;97015.00;;;;5052134;28;20641;-86
2022/07/19 09:08:09;;;;;;;0.98;0.98;;;32.20;43.50;34.30;97012.00;;;;5057037;28;20248;-86
2022/07/19 09:10:39;;;;;;;0.60;0.60;;;32.40;42.10;34.50;97006.00;;;;5047710;28;20219;-86
2022/07/19 09:13:13;;;;;;;0.70;0.70;;;32.60;42.60;34.70;97003.00;;;;5054767;28;20201;-86
2022/07/19 09:15:50;;;;;;;4.22;0.75;;;32.80;41.90;35.00;97005.00;;;;5051703;28;20940;-86
2022/07/19 09:18:20;;;;;;;2.47;0.73;;;33.00;41.60;35.30;97009.00;;;;5053936;28;20578;-86
2022/07/19 09:23:58;;;;;;;1.08;0.90;;;33.40;41.20;36.00;97000.00;;;;5024536;28;20203;-86
2022/07/19 09:26:25;;;;;;;0.68;0.68;;;33.70;40.50;36.30;97008.00;;;;5052005;28;20250;-86
2022/07/19 09:28:53;;;;;;;0.93;0.80;;;33.80;40.30;36.60;96998.00;;;;5051843;28;20886;-85
2022/07/19 09:31:21;;;;;;;0.95;0.80;;;34.00;39.20;36.90;96998.00;;;;5058748;28;20274;-85
2022/07/19 09:33:53;;;;;;;1.25;0.90;;;34.30;39.60;37.10;96999.00;;;;5052176;28;20204;-85
2022/07/19 09:36:21;;;;;;;1.17;0.60;;;34.50;39.00;37.40;97004.00;;;;5055362;28;20213;-86
2022/07/19 09:38:53;;;;;;;2.25;0.77;;;34.70;38.50;37.60;96990.00;;;;5051630;28;22051;-86
2022/07/19 09:41:21;;;;;;;2.75;0.85;;;34.90;37.10;37.90;96999.00;;;;5053814;28;20196;-86
2022/07/19 09:43:57;;;;;;;0.80;0.80;;;35.20;37.80;38.10;96987.00;;;;5058477;28;20208;-86
2022/07/19 09:46:35;;;;;;;1.75;0.73;;;35.40;36.90;38.30;96984.00;;;;5050184;28;20212;-86
2022/07/19 09:49:09;;;;;;;1.15;0.85;;;35.60;36.60;38.50;96998.00;;;;5057321;28;20216;-86
2022/07/19 09:51:40;;;;;;;1.23;0.60;;;35.90;36.40;38.70;96993.00;;;;5053427;28;20228;-86
2022/07/19 09:54:10;;;;;;;0.60;0.60;;;36.00;36.20;38.90;96996.00;;;;5062462;28;20230;-86
2022/07/19 09:56:40;;;;;;;0.77;0.68;;;36.30;36.10;39.00;96992.00;;;;5066193;28;20260;-86
2022/07/19 09:59:11;;;;;;;2.33;0.88;;;36.50;35.80;39.20;97000.00;;;;5062148;28;20244;-86
2022/07/19 10:01:43;;;;;;;0.60;0.60;;;36.70;35.30;39.30;96988.00;;;;5052770;28;20213;-86
2022/07/19 10:04:14;;;;;;;1.60;0.80;;;36.90;35.30;39.50;96996.00;;;;5059000;28;20782;-86
2022/07/19 10:06:43;;;;;;;0.50;0.45;;;37.10;34.90;39.60;96988.00;;;;5061893;28;20220;-85
2022/07/19 10:09:14;;;;;;;0.57;0.57;;;37.30;34.40;39.60;96982.00;;;;5048527;28;20231;-86
2022/07/19 10:11:42;;;;;;;1.67;0.70;;;37.40;34.00;39.70;96985.00;;;;5055695;28;20919;-84
2022/07/19 10:14:10;;;;;;;0.52;0.52;;;37.60;33.80;39.70;96985.00;;;;5061891;28;20212;-83
2022/07/19 10:16:58;;;;;;;0.70;0.57;;;37.80;33.20;39.70;96986.00;;;;5054112;28;20278;-85
2022/07/19 10:19:37;;;;;;;1.92;0.68;;;37.80;31.70;39.80;96980.00;;;;5059526;28;20204;-84
2022/07/19 10:22:07;;;;;;;0.73;0.70;;;38.10;32.40;39.80;96970.00;;;;5062697;28;20243;-86
2022/07/19 10:24:51;;;;;;;0.70;0.70;;;38.10;31.90;39.90;96978.00;;;;5058265;28;20947;-85
2022/07/19 10:27:37;;;;;;;3.22;0.70;;;38.30;31.40;39.90;96988.00;;;;5060545;28;20217;-85
2022/07/19 10:30:26;;;;;;;1.00;0.63;;;38.40;31.70;40.00;96977.00;;;;5058588;28;20204;-84
2022/07/19 10:32:57;;;;;;;0.55;0.55;;;38.50;31.20;40.00;96969.00;;;;5063427;28;20192;-84
2022/07/19 10:35:30;;;;;;;3.08;0.68;;;38.60;31.40;40.10;96979.00;;;;5056430;28;20204;-83
2022/07/19 10:38:11;;;;;;;0.93;0.70;;;38.70;30.80;40.10;96981.00;;;;5055144;28;20296;-85
2022/07/19 10:40:44;;;;;;;0.82;0.70;;;38.90;31.10;40.20;96982.00;;;;5057317;28;20204;-85
2022/07/19 10:43:21;;;;;;;1.05;0.70;;;39.00;31.20;40.20;96975.00;;;;5058932;28;20708;-84
2022/07/19 10:46:10;;;;;;;2.47;0.63;;;39.10;30.10;40.20;96973.00;;;;5076424;28;20191;-85
2022/07/19 10:48:46;;;;;;;0.65;0.65;;;39.20;30.10;40.20;96967.00;;;;5052667;28;20260;-84
2022/07/19 10:51:29;;;;;;;1.63;0.68;;;39.30;30.30;40.20;96968.00;;;;5061140;28;20216;-84
2022/07/19 10:54:06;;;;;;;0.70;0.65;;;39.40;29.70;40.20;96965.00;;;;5061066;28;20192;-84
2022/07/19 10:56:59;;;;;;;0.70;0.70;;;39.50;30.00;40.20;96964.00;;;;5061489;28;20200;-84
2022/07/19 10:59:40;;;;;;;0.65;0.65;;;39.60;29.90;40.20;96964.00;;;;5061300;28;20606;-85
2022/07/19 11:02:08;;;;;;;1.50;0.90;;;39.60;29.20;40.10;96959.00;;;;5052162;28;20250;-85
2022/07/19 11:04:43;;;;;;;0.70;0.70;;;39.60;29.50;40.10;96961.00;;;;5062047;28;20197;-84
2022/07/19 11:07:23;;;;;;;1.20;0.70;;;39.40;29.50;40.00;96955.00;;;;5055461;28;20219;-85
2022/07/19 11:09:57;;;;;;;0.93;0.88;;;39.30;29.20;39.80;96953.00;;;;5035024;28;20229;-84